Friday, October 20, 2017, 9:19 PM EDT
Back to Local

KDYL, Doylestown Airport

Location: Doylestown, PA, United States Lat: 40.333
Local Time: 9:19 PM EDT ( 1:19 GMT) Lon: -75.117
Time Zone: US/Eastern Elev: 393 ft

Show me the last for .
Show Coded

Time T Td Feel RH Dir Speed Gust Alt SLP Vis Weather Sky Remarks
2017-10-20 20:54 56 39 - 52 - Calm - 30.19 30.19 10 CLR None
2017-10-20 19:54 58 38 - 47 - Calm - 30.18 30.18 10 CLR 6-hr Min Temp (8pm): 57.9°F
6-hr Max Temp (8pm): 73.0°F
2017-10-20 18:54 64 34 - 32 330° 5 - 30.17 30.17 10 CLR None
2017-10-20 17:54 69 33 - 26 340° 6 - 30.15 30.15 10 CLR None
2017-10-20 16:54 73 28 - 18 310° 8 - 30.14 30.14 10 CLR None
2017-10-20 15:54 73 30 - 20 310° 9 - 30.14 30.14 10 CLR None
2017-10-20 14:54 72 29 - 20 300° 9 20 30.15 30.14 10 CLR None
2017-10-20 13:54 71 32 - 23 330° 10 18 30.16 30.15 10 CLR 6-hr Min Temp (2pm): 48.0°F
6-hr Max Temp (2pm): 72.0°F
2017-10-20 12:54 70 34 - 26 330° 10 20 30.18 30.18 10 CLR None
2017-10-20 11:54 68 36 - 30 320° 10 - 30.20 30.19 10 CLR None
2017-10-20 10:54 66 39 - 37 330° 12 18 30.21 30.21 10 CLR None
2017-10-20 09:54 64 48 - 55 310° 5 - 30.21 30.21 10 CLR None
2017-10-20 08:54 53 48 - 82 - Calm - 30.20 30.19 10 CLR None
2017-10-20 07:54 48 46 - 92 - Calm - 30.18 30.18 10 CLR 6-hr Min Temp (8am): 46.9°F
6-hr Max Temp (8am): 54.0°F
2017-10-20 06:54 49 46 48 89 Variable 3 - 30.15 30.16 10 CLR None
2017-10-20 05:54 49 47 - 92 - Calm - 30.14 30.14 10 CLR None
2017-10-20 04:54 51 47 - 85 190° 3 - 30.12 30.12 10 CLR None
2017-10-20 03:54 53 48 - 82 180° 5 - 30.11 30.10 10 CLR None
2017-10-20 02:54 53 48 - 82 180° 3 - 30.11 30.10 10 CLR None
2017-10-20 01:54 53 48 - 82 200° 3 - 30.12 30.11 10 CLR 6-hr Min Temp (2am): 52.0°F
6-hr Max Temp (2am): 60.1°F
2017-10-20 00:54 53 48 - 82 200° 3 - 30.11 30.11 10 CLR 24-hr Min Temp (1am): 43.0°F
24-hr Max Temp (1am): 71.1°F
2017-10-19 23:54 55 48 - 77 200° 5 - 30.12 30.11 10 CLR None
2017-10-19 22:54 56 47 - 71 230° 3 - 30.12 30.11 10 CLR None
2017-10-19 21:54 57 46 - 66 230° 6 - 30.12 30.12 10 CLR None

Support USWX by starting your Amazon purchase here.